Time;durP1;ratioP1;P1;durP2;ratioP2;P2;SDS_P1;SDS_P2;PMS_P1;PMS_P2;Temp;Humidity;BMP_temperature;BMP_pressure;BME280_temperature;BME280_humidity;BME280_pressure;Samples;Min_cycle;Max_cycle;Signal;HPM_P1;HPM_P2
2023/03/04 00:01:49;;;;;;;;;45.00;40.25;;;;;;;;5102105;27;46283;-73
2023/03/04 00:04:15;;;;;;;;;51.25;41.50;;;;;;;;5112154;27;45450;-73
2023/03/04 00:06:40;;;;;;;;;55.25;42.00;;;;;;;;5099637;27;45408;-73
2023/03/04 00:09:05;;;;;;;;;60.00;45.50;;;;;;;;5108084;27;45334;-73
2023/03/04 00:11:31;;;;;;;;;49.00;41.25;;;;;;;;5106707;27;45419;-73
2023/03/04 00:13:56;;;;;;;;;49.25;41.00;;;;;;;;5111241;27;45484;-73
2023/03/04 00:16:21;;;;;;;;;50.25;41.75;;;;;;;;5097924;27;45417;-73
2023/03/04 00:18:47;;;;;;;;;56.50;45.25;;;;;;;;5110418;27;45506;-74
2023/03/04 00:21:12;;;;;;;;;43.00;38.25;;;;;;;;5103447;27;47303;-73
2023/03/04 00:23:37;;;;;;;;;58.00;45.75;;;;;;;;5103525;27;45281;-72
2023/03/04 00:26:02;;;;;;;;;52.75;44.50;;;;;;;;5111733;27;45349;-72
2023/03/04 00:28:27;;;;;;;;;53.25;44.75;;;;;;;;5098784;27;45424;-73
2023/03/04 00:30:53;;;;;;;;;53.00;46.00;;;;;;;;5110712;27;45367;-72
2023/03/04 00:33:18;;;;;;;;;61.50;44.00;;;;;;;;5105624;27;45384;-72
2023/03/04 00:35:43;;;;;;;;;53.50;40.50;;;;;;;;5102308;27;45659;-72
2023/03/04 00:38:08;;;;;;;;;57.75;46.25;;;;;;;;5112910;27;45428;-72
2023/03/04 00:40:34;;;;;;;;;51.75;43.25;;;;;;;;5099500;27;46274;-72
2023/03/04 00:42:59;;;;;;;;;54.25;43.75;;;;;;;;5109759;27;45488;-72
2023/03/04 00:45:24;;;;;;;;;57.75;47.25;;;;;;;;5106393;27;45529;-73
2023/03/04 00:47:49;;;;;;;;;60.50;47.75;;;;;;;;5102866;27;45460;-72
2023/03/04 00:50:15;;;;;;;;;55.75;46.00;;;;;;;;5094671;27;48638;-73
2023/03/04 00:52:40;;;;;;;;;47.75;40.75;;;;;;;;5100428;27;45439;-74
2023/03/04 00:55:06;;;;;;;;;53.25;42.00;;;;;;;;5107215;27;45358;-73
2023/03/04 00:57:31;;;;;;;;;54.25;43.75;;;;;;;;5107798;27;45547;-74
2023/03/04 00:59:56;;;;;;;;;56.25;45.50;;;;;;;;5100748;27;46063;-72
2023/03/04 01:02:21;;;;;;;;;60.00;47.00;;;;;;;;5112738;27;45583;-73
2023/03/04 01:04:46;;;;;;;;;54.25;45.50;;;;;;;;5101358;27;45372;-72
2023/03/04 01:07:12;;;;;;;;;55.75;42.50;;;;;;;;5106277;27;45730;-72
2023/03/04 01:09:37;;;;;;;;;63.75;49.00;;;;;;;;5086052;27;46087;-71
2023/03/04 01:12:02;;;;;;;;;59.25;46.75;;;;;;;;5109001;27;45444;-71
2023/03/04 01:14:27;;;;;;;;;56.50;45.00;;;;;;;;5112717;27;45463;-71
2023/03/04 01:16:53;;;;;;;;;59.00;47.25;;;;;;;;5102056;27;45385;-72
2023/03/04 01:19:18;;;;;;;;;53.00;43.75;;;;;;;;5106685;27;45603;-72
2023/03/04 01:21:43;;;;;;;;;59.00;45.25;;;;;;;;5109166;27;45584;-73
2023/03/04 01:24:08;;;;;;;;;59.00;46.50;;;;;;;;5097837;27;45407;-73
2023/03/04 01:26:33;;;;;;;;;49.50;41.25;;;;;;;;5112505;27;45430;-73
2023/03/04 01:28:59;;;;;;;;;61.50;46.50;;;;;;;;5102579;27;45924;-73
2023/03/04 01:31:24;;;;;;;;;51.50;42.75;;;;;;;;5103406;27;45500;-72
2023/03/04 01:33:50;;;;;;;;;56.00;45.25;;;;;;;;5089714;27;45597;-73
2023/03/04 01:36:15;;;;;;;;;59.25;48.25;;;;;;;;5096038;27;46019;-73
2023/03/04 01:38:40;;;;;;;;;59.00;47.25;;;;;;;;5092713;27;46844;-72
2023/03/04 01:41:06;;;;;;;;;54.00;45.50;;;;;;;;5092623;27;45393;-71
2023/03/04 01:43:34;;;;;;;;;63.75;47.25;;;;;;;;5108782;27;45457;-72
2023/03/04 01:45:59;;;;;;;;;49.25;40.25;;;;;;;;5101324;27;45576;-72
2023/03/04 01:48:30;;;;;;;;;58.00;46.00;;;;;;;;5115484;27;45980;-72
2023/03/04 01:50:55;;;;;;;;;56.75;45.75;;;;;;;;5105116;27;45549;-72
2023/03/04 01:53:25;;;;;;;;;56.25;48.00;;;;;;;;5106856;27;45382;-72
2023/03/04 01:55:51;;;;;;;;;59.50;45.25;;;;;;;;5110413;27;45375;-72
2023/03/04 01:58:17;;;;;;;;;58.75;48.25;;;;;;;;5098008;27;45755;-72
2023/03/04 02:00:42;;;;;;;;;56.50;45.25;;;;;;;;5097307;27;45407;-72
2023/03/04 02:03:11;;;;;;;;;52.75;41.75;;;;;;;;5108631;27;45383;-72
2023/03/04 02:05:38;;;;;;;;;53.25;45.75;;;;;;;;5095711;27;45423;-72
2023/03/04 02:08:03;;;;;;;;;63.75;47.00;;;;;;;;5095132;27;45352;-72
2023/03/04 02:10:29;;;;;;;;;54.50;43.75;;;;;;;;5112170;27;45324;-72
2023/03/04 02:12:54;;;;;;;;;54.50;42.50;;;;;;;;5102065;27;45312;-72
2023/03/04 02:15:20;;;;;;;;;50.25;39.00;;;;;;;;5106450;27;45423;-72
2023/03/04 02:17:45;;;;;;;;;54.25;40.00;;;;;;;;5095782;27;47144;-73
2023/03/04 02:20:23;;;;;;;;;52.75;43.25;;;;;;;;5112837;27;45347;-72
2023/03/04 02:22:52;;;;;;;;;47.00;41.50;;;;;;;;5093454;27;45440;-72
2023/03/04 02:25:21;;;;;;;;;50.75;42.00;;;;;;;;5096252;27;45479;-73
2023/03/04 02:27:47;;;;;;;;;54.75;43.75;;;;;;;;5096402;27;46271;-72
2023/03/04 02:30:12;;;;;;;;;48.75;41.50;;;;;;;;5096539;27;45468;-73
2023/03/04 02:32:37;;;;;;;;;53.25;42.25;;;;;;;;5096589;27;45439;-73
2023/03/04 02:35:02;;;;;;;;;55.00;43.25;;;;;;;;5096380;27;45349;-73
2023/03/04 02:37:28;;;;;;;;;46.50;40.00;;;;;;;;5096045;27;45340;-73
2023/03/04 02:39:53;;;;;;;;;52.25;43.50;;;;;;;;5096288;27;45376;-73
2023/03/04 02:42:18;;;;;;;;;54.25;45.00;;;;;;;;5095940;27;45349;-73
2023/03/04 02:44:47;;;;;;;;;55.25;45.25;;;;;;;;5095955;27;45335;-73
2023/03/04 02:47:13;;;;;;;;;57.00;45.25;;;;;;;;5095762;27;45883;-73
2023/03/04 02:49:39;;;;;;;;;56.75;45.25;;;;;;;;5096034;27;45407;-73
2023/03/04 02:52:06;;;;;;;;;55.00;45.75;;;;;;;;5095876;27;45300;-73
2023/03/04 02:54:32;;;;;;;;;59.25;47.75;;;;;;;;5095812;27;45250;-73
2023/03/04 02:56:59;;;;;;;;;60.75;48.75;;;;;;;;5095871;27;46426;-72
2023/03/04 02:59:24;;;;;;;;;61.00;49.50;;;;;;;;5095747;27;45747;-73
2023/03/04 03:01:49;;;;;;;;;63.25;52.50;;;;;;;;5096075;27;45416;-73
2023/03/04 03:04:15;;;;;;;;;54.50;43.50;;;;;;;;5095654;27;45525;-73
2023/03/04 03:06:40;;;;;;;;;59.75;47.00;;;;;;;;5095315;27;46113;-73
2023/03/04 03:09:06;;;;;;;;;56.25;45.25;;;;;;;;5095477;27;45485;-73
2023/03/04 03:11:32;;;;;;;;;61.50;49.25;;;;;;;;5095973;27;45468;-73
2023/03/04 03:13:57;;;;;;;;;54.50;45.75;;;;;;;;5095221;27;45330;-73
2023/03/04 03:16:22;;;;;;;;;53.25;41.00;;;;;;;;5095533;27;47333;-73
2023/03/04 03:18:47;;;;;;;;;63.75;49.50;;;;;;;;5095436;27;45323;-73
2023/03/04 03:21:13;;;;;;;;;57.75;45.00;;;;;;;;5094446;27;45412;-73
2023/03/04 03:23:38;;;;;;;;;56.25;47.75;;;;;;;;5095857;27;45424;-73
2023/03/04 03:26:03;;;;;;;;;54.25;44.00;;;;;;;;5095969;27;46374;-73
2023/03/04 03:28:28;;;;;;;;;59.25;46.50;;;;;;;;5096250;27;45533;-74
2023/03/04 03:30:54;;;;;;;;;52.75;43.50;;;;;;;;5095766;27;45317;-73
2023/03/04 03:33:19;;;;;;;;;59.75;47.50;;;;;;;;5095207;27;45443;-73
2023/03/04 03:35:44;;;;;;;;;62.25;48.75;;;;;;;;5095051;27;46212;-73
2023/03/04 03:38:09;;;;;;;;;59.50;47.75;;;;;;;;5095198;27;45322;-73
2023/03/04 03:40:35;;;;;;;;;65.25;48.50;;;;;;;;5095697;27;45284;-73
2023/03/04 03:43:00;;;;;;;;;59.75;46.25;;;;;;;;5095300;27;45504;-73
2023/03/04 03:45:25;;;;;;;;;60.00;47.50;;;;;;;;5095246;27;46044;-73
2023/03/04 03:47:50;;;;;;;;;62.25;48.00;;;;;;;;5095422;27;45387;-73
2023/03/04 03:50:16;;;;;;;;;57.75;44.75;;;;;;;;5095289;27;45359;-73
2023/03/04 03:52:41;;;;;;;;;56.25;45.00;;;;;;;;5095647;27;45271;-73
2023/03/04 03:55:06;;;;;;;;;61.50;48.00;;;;;;;;5095257;27;46088;-73
2023/03/04 03:57:31;;;;;;;;;57.50;46.50;;;;;;;;5094891;27;45239;-73
2023/03/04 03:59:57;;;;;;;;;55.75;41.75;;;;;;;;5095460;27;45253;-74
2023/03/04 04:02:22;;;;;;;;;55.00;46.00;;;;;;;;5093321;27;45566;-73
2023/03/04 04:04:47;;;;;;;;;54.50;45.75;;;;;;;;5094504;27;46132;-73
2023/03/04 04:07:13;;;;;;;;;54.25;45.00;;;;;;;;5094906;27;45323;-73
2023/03/04 04:09:38;;;;;;;;;51.50;43.75;;;;;;;;5094990;27;45333;-73
2023/03/04 04:12:04;;;;;;;;;59.25;49.25;;;;;;;;5095037;27;45723;-73
2023/03/04 04:14:29;;;;;;;;;59.00;43.25;;;;;;;;5094721;27;47893;-73
2023/03/04 04:16:55;;;;;;;;;44.00;35.75;;;;;;;;5094530;27;45361;-73
2023/03/04 04:19:20;;;;;;;;;51.75;39.75;;;;;;;;5093607;27;45341;-73
2023/03/04 04:21:45;;;;;;;;;54.50;42.50;;;;;;;;5097237;27;45348;-73
2023/03/04 04:24:10;;;;;;;;;55.00;46.00;;;;;;;;5098152;27;46307;-73
2023/03/04 04:26:36;;;;;;;;;50.50;42.00;;;;;;;;5097945;27;45439;-73
2023/03/04 04:29:01;;;;;;;;;56.50;46.00;;;;;;;;5098521;27;45416;-73
2023/03/04 04:31:26;;;;;;;;;45.00;39.25;;;;;;;;5098435;27;45351;-73
2023/03/04 04:33:51;;;;;;;;;61.75;49.00;;;;;;;;5097738;27;46083;-73
2023/03/04 04:36:17;;;;;;;;;54.00;43.75;;;;;;;;5098202;27;45426;-73
2023/03/04 04:38:42;;;;;;;;;50.25;41.00;;;;;;;;5098444;27;45446;-73
2023/03/04 04:41:15;;;;;;;;;49.75;40.00;;;;;;;;5098324;27;45320;-73
2023/03/04 04:43:41;;;;;;;;;61.75;48.25;;;;;;;;5097991;27;46175;-73
2023/03/04 04:46:07;;;;;;;;;57.75;45.00;;;;;;;;5097452;27;45401;-73
2023/03/04 04:48:32;;;;;;;;;56.50;45.00;;;;;;;;5097809;27;45569;-73
2023/03/04 04:50:57;;;;;;;;;56.25;47.25;;;;;;;;5097773;27;45287;-73
2023/03/04 04:53:23;;;;;;;;;55.75;47.25;;;;;;;;5097520;27;46515;-73
2023/03/04 04:55:48;;;;;;;;;51.50;43.75;;;;;;;;5097765;27;45307;-74
2023/03/04 04:58:13;;;;;;;;;56.00;46.25;;;;;;;;5097990;27;45300;-74
2023/03/04 05:00:38;;;;;;;;;61.00;49.75;;;;;;;;5097312;27;45399;-73
2023/03/04 05:03:03;;;;;;;;;64.75;48.25;;;;;;;;5097425;27;46031;-73
2023/03/04 05:05:29;;;;;;;;;63.75;48.75;;;;;;;;5097279;27;45342;-73
2023/03/04 05:07:54;;;;;;;;;55.25;43.75;;;;;;;;5096518;27;45425;-73
2023/03/04 05:10:19;;;;;;;;;54.50;44.25;;;;;;;;5097362;27;45424;-73
2023/03/04 05:12:44;;;;;;;;;55.75;47.25;;;;;;;;5096963;27;46089;-73
2023/03/04 05:15:10;;;;;;;;;60.00;47.00;;;;;;;;5097424;27;45353;-74
2023/03/04 05:17:35;;;;;;;;;64.00;50.25;;;;;;;;5097225;27;45356;-73
2023/03/04 05:20:01;;;;;;;;;60.50;45.00;;;;;;;;5097155;27;45267;-73
2023/03/04 05:22:26;;;;;;;;;53.50;44.00;;;;;;;;5096832;27;47103;-73
2023/03/04 05:24:51;;;;;;;;;57.50;48.25;;;;;;;;5097245;27;45412;-73
2023/03/04 05:27:16;;;;;;;;;57.00;43.75;;;;;;;;5097374;27;45411;-73
2023/03/04 05:29:43;;;;;;;;;67.25;48.00;;;;;;;;5097457;27;45399;-73
2023/03/04 05:32:08;;;;;;;;;55.75;45.50;;;;;;;;5097837;27;47035;-73
2023/03/04 05:34:34;;;;;;;;;66.25;51.75;;;;;;;;5097834;27;45452;-73
2023/03/04 05:36:59;;;;;;;;;66.00;51.50;;;;;;;;5097441;27;45465;-73
2023/03/04 05:39:24;;;;;;;;;56.25;44.75;;;;;;;;5096697;27;45453;-74
2023/03/04 05:41:49;;;;;;;;;55.75;46.00;;;;;;;;5096724;27;45440;-73
2023/03/04 05:44:15;;;;;;;;;63.00;47.75;;;;;;;;5095122;27;45341;-73
2023/03/04 05:46:40;;;;;;;;;55.50;45.25;;;;;;;;5097002;27;45343;-73
2023/03/04 05:49:05;;;;;;;;;44.25;40.75;;;;;;;;5096926;27;45423;-73
2023/03/04 05:51:30;;;;;;;;;59.75;47.50;;;;;;;;5096944;27;45614;-73
2023/03/04 05:53:55;;;;;;;;;54.25;44.25;;;;;;;;5096320;27;45396;-73
2023/03/04 05:56:21;;;;;;;;;59.00;47.00;;;;;;;;5096794;27;45319;-72
2023/03/04 05:58:46;;;;;;;;;58.25;46.50;;;;;;;;5096770;27;45262;-72
2023/03/04 06:01:12;;;;;;;;;56.50;43.50;;;;;;;;5096335;27;46198;-72
2023/03/04 06:03:37;;;;;;;;;55.50;44.75;;;;;;;;5096805;27;45403;-73
2023/03/04 06:06:03;;;;;;;;;59.50;45.50;;;;;;;;5096827;27;45307;-73
2023/03/04 06:08:28;;;;;;;;;59.00;49.00;;;;;;;;5096408;27;45425;-73
2023/03/04 06:10:55;;;;;;;;;58.00;46.00;;;;;;;;5096361;27;45227;-72
2023/03/04 06:13:20;;;;;;;;;60.50;48.50;;;;;;;;5095742;27;45399;-72
2023/03/04 06:15:46;;;;;;;;;60.25;48.50;;;;;;;;5096303;27;45298;-73
2023/03/04 06:18:11;;;;;;;;;52.00;43.00;;;;;;;;5096733;27;45349;-73
2023/03/04 06:20:36;;;;;;;;;62.75;45.75;;;;;;;;5096132;27;47053;-73
2023/03/04 06:23:02;;;;;;;;;51.00;43.50;;;;;;;;5095950;27;45414;-72
2023/03/04 06:25:27;;;;;;;;;56.00;43.75;;;;;;;;5096412;27;45349;-73
2023/03/04 06:27:52;;;;;;;;;55.75;46.50;;;;;;;;5096394;27;45674;-73
2023/03/04 06:30:18;;;;;;;;;57.25;45.50;;;;;;;;5096205;27;45383;-73
2023/03/04 06:32:43;;;;;;;;;54.75;46.00;;;;;;;;5096110;27;45429;-73
2023/03/04 06:35:10;;;;;;;;;62.00;49.50;;;;;;;;5095883;27;45428;-73
2023/03/04 06:37:35;;;;;;;;;54.75;46.25;;;;;;;;5096047;27;45394;-73
2023/03/04 06:40:00;;;;;;;;;58.75;47.75;;;;;;;;5095852;27;45557;-72
2023/03/04 06:42:26;;;;;;;;;61.25;47.50;;;;;;;;5095465;27;45538;-73
2023/03/04 06:44:51;;;;;;;;;56.25;46.00;;;;;;;;5095759;27;45366;-73
2023/03/04 06:47:17;;;;;;;;;60.75;48.00;;;;;;;;5096014;27;45348;-73
2023/03/04 06:49:42;;;;;;;;;55.00;43.50;;;;;;;;5095616;27;47105;-73
2023/03/04 06:52:10;;;;;;;;;52.75;44.25;;;;;;;;5095653;27;45289;-72
2023/03/04 06:54:36;;;;;;;;;52.00;42.75;;;;;;;;5094454;27;45465;-73
2023/03/04 06:57:01;;;;;;;;;55.75;41.25;;;;;;;;5095132;27;45249;-72
2023/03/04 06:59:26;;;;;;;;;57.00;46.25;;;;;;;;5095586;27;45494;-73
2023/03/04 07:01:51;;;;;;;;;56.50;41.75;;;;;;;;5094533;27;45395;-72
2023/03/04 07:04:16;;;;;;;;;55.50;44.50;;;;;;;;5094891;27;45403;-73
2023/03/04 07:06:42;;;;;;;;;61.75;48.00;;;;;;;;5095498;27;45563;-72
2023/03/04 07:09:07;;;;;;;;;55.00;42.25;;;;;;;;5095366;27;46331;-72
2023/03/04 07:11:32;;;;;;;;;54.50;45.25;;;;;;;;5094981;27;45241;-72
2023/03/04 07:13:57;;;;;;;;;51.25;41.25;;;;;;;;5094625;27;45412;-72
2023/03/04 07:16:22;;;;;;;;;49.00;43.00;;;;;;;;5095181;27;45500;-72
2023/03/04 07:18:48;;;;;;;;;56.25;46.00;;;;;;;;5095136;27;47347;-72
2023/03/04 07:21:14;;;;;;;;;51.25;41.00;;;;;;;;5093772;27;45884;-72
2023/03/04 07:23:40;;;;;;;;;65.50;46.00;;;;;;;;5095118;27;45346;-72
2023/03/04 07:26:05;;;;;;;;;52.75;43.25;;;;;;;;5091792;27;45541;-74
2023/03/04 07:28:30;;;;;;;;;58.50;48.50;;;;;;;;5077461;27;48059;-72
2023/03/04 07:30:56;;;;;;;;;52.75;43.50;;;;;;;;5089121;27;45383;-74
2023/03/04 07:33:21;;;;;;;;;57.50;42.50;;;;;;;;5093843;27;45476;-72
2023/03/04 07:35:46;;;;;;;;;54.25;45.25;;;;;;;;5091513;27;45292;-74
2023/03/04 07:38:11;;;;;;;;;54.50;44.25;;;;;;;;5086748;27;46116;-73
2023/03/04 07:40:37;;;;;;;;;47.25;39.50;;;;;;;;5086282;27;45373;-73
2023/03/04 07:43:02;;;;;;;;;55.75;44.00;;;;;;;;5095424;27;45369;-74
2023/03/04 07:45:28;;;;;;;;;47.75;40.50;;;;;;;;5093265;27;45562;-73
2023/03/04 07:47:53;;;;;;;;;49.75;41.25;;;;;;;;5085702;27;45428;-72
2023/03/04 07:50:19;;;;;;;;;55.00;46.50;;;;;;;;5074739;28;45212;-73
2023/03/04 07:52:45;;;;;;;;;59.00;48.00;;;;;;;;5074028;28;45320;-72
2023/03/04 07:55:11;;;;;;;;;52.50;42.00;;;;;;;;5074778;28;45477;-72
2023/03/04 07:57:41;;;;;;;;;59.00;45.00;;;;;;;;5082151;27;45235;-74
2023/03/04 08:00:06;;;;;;;;;58.00;47.50;;;;;;;;5098347;27;45446;-74
2023/03/04 08:02:32;;;;;;;;;61.50;47.00;;;;;;;;5098905;27;45352;-73
2023/03/04 08:04:57;;;;;;;;;55.25;46.25;;;;;;;;5098935;27;45358;-73
2023/03/04 08:07:22;;;;;;;;;50.75;43.25;;;;;;;;5098619;27;45448;-73
2023/03/04 08:09:48;;;;;;;;;60.50;47.25;;;;;;;;5099172;27;45470;-75
2023/03/04 08:12:13;;;;;;;;;56.75;43.75;;;;;;;;5099298;27;45340;-77
2023/03/04 08:14:38;;;;;;;;;54.00;42.00;;;;;;;;5102194;27;45331;-77
2023/03/04 08:17:03;;;;;;;;;54.25;41.50;;;;;;;;5107800;27;46528;-76
2023/03/04 08:19:28;;;;;;;;;56.25;45.50;;;;;;;;5100694;27;45338;-77
2023/03/04 08:21:54;;;;;;;;;63.50;49.25;;;;;;;;5097707;27;45383;-77
2023/03/04 08:24:19;;;;;;;;;61.00;47.00;;;;;;;;5097957;27;45604;-77
2023/03/04 08:26:45;;;;;;;;;59.75;48.00;;;;;;;;5096289;27;46395;-77
2023/03/04 08:29:12;;;;;;;;;57.25;47.75;;;;;;;;5099246;27;45342;-77
2023/03/04 08:31:38;;;;;;;;;59.50;47.75;;;;;;;;5100701;27;45455;-77
2023/03/04 08:34:04;;;;;;;;;60.50;46.50;;;;;;;;5103736;27;45534;-76
2023/03/04 08:36:29;;;;;;;;;62.25;47.75;;;;;;;;5103539;27;45508;-76
2023/03/04 08:38:54;;;;;;;;;53.75;43.50;;;;;;;;5096021;27;45515;-76
2023/03/04 08:41:19;;;;;;;;;49.00;40.75;;;;;;;;5107939;27;45236;-74
2023/03/04 08:43:45;;;;;;;;;52.50;42.00;;;;;;;;5104366;27;45414;-75
2023/03/04 08:46:10;;;;;;;;;57.25;41.50;;;;;;;;5098179;27;46003;-75
2023/03/04 08:48:37;;;;;;;;;56.25;47.00;;;;;;;;5098439;27;45429;-75
2023/03/04 08:51:06;;;;;;;;;53.25;43.00;;;;;;;;5098933;27;45433;-75
2023/03/04 08:53:31;;;;;;;;;51.50;43.00;;;;;;;;5100022;27;45176;-76
2023/03/04 08:55:57;;;;;;;;;48.50;41.25;;;;;;;;5099723;27;46316;-75
2023/03/04 08:58:22;;;;;;;;;50.00;41.75;;;;;;;;5099385;27;45271;-75
2023/03/04 09:00:50;;;;;;;;;63.75;48.00;;;;;;;;5103018;27;45569;-75
2023/03/04 09:03:18;;;;;;;;;59.50;46.00;;;;;;;;5098727;27;45515;-75
2023/03/04 09:05:43;;;;;;;;;48.75;40.75;;;;;;;;5097862;27;46093;-76
2023/03/04 09:08:09;;;;;;;;;55.75;42.00;;;;;;;;5098241;27;45363;-74
2023/03/04 09:10:34;;;;;;;;;59.50;44.00;;;;;;;;5097900;27;45483;-75
2023/03/04 09:13:00;;;;;;;;;74.00;58.00;;;;;;;;5097359;27;45329;-74
2023/03/04 09:15:25;;;;;;;;;59.25;47.00;;;;;;;;5096285;27;46239;-75
2023/03/04 09:17:50;;;;;;;;;53.75;43.75;;;;;;;;5097724;27;45270;-74
2023/03/04 09:20:16;;;;;;;;;57.50;46.00;;;;;;;;5097739;27;45356;-74
2023/03/04 09:22:41;;;;;;;;;70.50;56.00;;;;;;;;5096781;27;45369;-75
2023/03/04 09:25:07;;;;;;;;;61.00;47.25;;;;;;;;5097838;27;45407;-75
2023/03/04 09:27:32;;;;;;;;;66.75;54.75;;;;;;;;5098072;27;45673;-75
2023/03/04 09:29:57;;;;;;;;;76.50;63.00;;;;;;;;5097097;27;45308;-73
2023/03/04 09:32:23;;;;;;;;;76.00;61.25;;;;;;;;5097233;27;45284;-75
2023/03/04 09:34:48;;;;;;;;;59.00;49.25;;;;;;;;5097543;27;45372;-74
2023/03/04 09:37:13;;;;;;;;;35.25;33.00;;;;;;;;5096182;27;45552;-75
2023/03/04 09:39:38;;;;;;;;;31.75;27.00;;;;;;;;5095500;27;45434;-75
2023/03/04 09:42:05;;;;;;;;;31.25;27.50;;;;;;;;5108093;27;45759;-75
2023/03/04 09:44:41;;;;;;;;;35.00;27.75;;;;;;;;5098861;27;46041;-75
2023/03/04 09:47:10;;;;;;;;;41.50;31.25;;;;;;;;5084448;27;45538;-75
2023/03/04 09:49:38;;;;;;;;;38.00;35.25;;;;;;;;5105040;27;45342;-76
2023/03/04 09:52:06;;;;;;;;;41.00;33.75;;;;;;;;5102198;27;45577;-75
2023/03/04 09:54:35;;;;;;;;;33.25;27.25;;;;;;;;5112244;27;47108;-75
2023/03/04 09:57:16;;;;;;;;;40.75;34.50;;;;;;;;5081962;27;45376;-75
2023/03/04 09:59:45;;;;;;;;;35.25;28.00;;;;;;;;5106114;27;45487;-75
2023/03/04 10:02:19;;;;;;;;;25.25;21.75;;;;;;;;5107827;27;45352;-75
2023/03/04 10:04:49;;;;;;;;;32.75;30.25;;;;;;;;5098311;27;46228;-75
2023/03/04 10:07:26;;;;;;;;;30.75;23.75;;;;;;;;5108890;27;45495;-75
2023/03/04 10:09:59;;;;;;;;;34.00;29.00;;;;;;;;5095253;27;45418;-75
2023/03/04 10:12:29;;;;;;;;;28.00;27.75;;;;;;;;5105907;27;45580;-75
2023/03/04 10:14:59;;;;;;;;;28.50;22.75;;;;;;;;5112168;27;46275;-75
2023/03/04 10:17:27;;;;;;;;;25.75;21.50;;;;;;;;5101790;27;45868;-75
2023/03/04 10:19:58;;;;;;;;;25.75;21.00;;;;;;;;5103419;27;45467;-75
2023/03/04 10:22:26;;;;;;;;;24.25;22.25;;;;;;;;5110175;27;45460;-75
2023/03/04 10:24:54;;;;;;;;;20.25;19.25;;;;;;;;5113750;27;47162;-75
2023/03/04 10:27:20;;;;;;;;;34.25;25.75;;;;;;;;5101415;27;45480;-75
2023/03/04 10:29:45;;;;;;;;;34.75;25.75;;;;;;;;5106400;27;45413;-76
2023/03/04 10:32:13;;;;;;;;;21.50;21.00;;;;;;;;5097103;27;45397;-76
2023/03/04 10:34:38;;;;;;;;;22.25;18.75;;;;;;;;5096311;27;45399;-75
2023/03/04 10:37:06;;;;;;;;;15.50;12.75;;;;;;;;5096674;27;45472;-75
2023/03/04 10:39:35;;;;;;;;;19.50;18.75;;;;;;;;5097733;27;45472;-75
2023/03/04 10:42:21;;;;;;;;;17.25;16.75;;;;;;;;5096982;27;45491;-76
2023/03/04 10:44:52;;;;;;;;;17.25;16.00;;;;;;;;5075037;28;48439;-75
2023/03/04 10:47:18;;;;;;;;;20.75;17.00;;;;;;;;5093232;27;45339;-75
2023/03/04 10:49:51;;;;;;;;;13.25;11.25;;;;;;;;5095784;27;45292;-75
2023/03/04 10:52:31;;;;;;;;;17.25;16.00;;;;;;;;5095677;27;45531;-74
2023/03/04 10:55:02;;;;;;;;;16.75;16.75;;;;;;;;5096394;27;45328;-75
2023/03/04 10:57:33;;;;;;;;;18.75;16.25;;;;;;;;5096389;27;45435;-74
2023/03/04 10:59:59;;;;;;;;;15.75;15.75;;;;;;;;5097173;27;45496;-76
2023/03/04 11:02:32;;;;;;;;;10.75;10.75;;;;;;;;5096844;27;45357;-76
2023/03/04 11:05:19;;;;;;;;;15.75;15.75;;;;;;;;5095817;27;46243;-76
2023/03/04 11:07:47;;;;;;;;;18.75;17.50;;;;;;;;5096681;27;45802;-76
2023/03/04 11:10:17;;;;;;;;;14.50;13.50;;;;;;;;5096669;27;45494;-76
2023/03/04 11:12:47;;;;;;;;;14.50;14.50;;;;;;;;5096377;27;45517;-77
2023/03/04 11:15:21;;;;;;;;;19.50;17.25;;;;;;;;5096392;27;47422;-76
2023/03/04 11:17:52;;;;;;;;;16.00;14.00;;;;;;;;5096487;27;45523;-76
2023/03/04 11:20:35;;;;;;;;;15.00;15.00;;;;;;;;5096550;27;45395;-77
2023/03/04 11:23:03;;;;;;;;;16.00;14.75;;;;;;;;5096588;27;45480;-76
2023/03/04 11:25:33;;;;;;;;;15.00;12.75;;;;;;;;5096399;27;45484;-76
2023/03/04 11:28:02;;;;;;;;;23.75;17.75;;;;;;;;5096300;27;45239;-76
2023/03/04 11:30:33;;;;;;;;;14.25;11.75;;;;;;;;5099013;27;45216;-76
2023/03/04 11:33:05;;;;;;;;;12.50;10.50;;;;;;;;5100302;27;45283;-76
2023/03/04 11:35:33;;;;;;;;;20.50;14.50;;;;;;;;5099538;27;45297;-76
2023/03/04 11:38:03;;;;;;;;;13.00;13.00;;;;;;;;5099151;27;45372;-75
2023/03/04 11:40:28;;;;;;;;;18.25;15.25;;;;;;;;5099413;27;45285;-75
2023/03/04 11:43:01;;;;;;;;;16.50;11.75;;;;;;;;5099863;27;45639;-75
2023/03/04 11:45:26;;;;;;;;;14.00;9.50;;;;;;;;5098944;27;46209;-75
2023/03/04 11:47:54;;;;;;;;;19.75;17.00;;;;;;;;5099828;27;45305;-75
2023/03/04 11:50:19;;;;;;;;;17.00;16.00;;;;;;;;5100161;27;45432;-75
2023/03/04 11:52:59;;;;;;;;;15.25;11.75;;;;;;;;5100096;27;45543;-75
2023/03/04 11:55:25;;;;;;;;;16.00;16.00;;;;;;;;5098688;27;45385;-75
2023/03/04 11:58:09;;;;;;;;;17.75;15.25;;;;;;;;5099829;27;45323;-75
2023/03/04 12:00:34;;;;;;;;;18.50;16.25;;;;;;;;5099768;27;45318;-75
2023/03/04 12:03:18;;;;;;;;;14.25;11.25;;;;;;;;5099480;27;45543;-75
2023/03/04 12:06:10;;;;;;;;;16.00;16.00;;;;;;;;5100340;27;47126;-76
2023/03/04 12:08:58;;;;;;;;;17.00;16.00;;;;;;;;5077048;28;45551;-76
2023/03/04 12:11:25;;;;;;;;;11.75;11.50;;;;;;;;5077907;27;45347;-75
2023/03/04 12:14:03;;;;;;;;;17.00;13.75;;;;;;;;5078165;28;45327;-75
2023/03/04 12:17:00;;;;;;;;;16.75;12.75;;;;;;;;5078296;28;45561;-76
2023/03/04 12:19:37;;;;;;;;;14.25;11.25;;;;;;;;5037738;28;45562;-76
2023/03/04 12:22:03;;;;;;;;;13.25;13.25;;;;;;;;5037269;28;45316;-76
2023/03/04 12:24:34;;;;;;;;;13.50;12.75;;;;;;;;5036315;28;45400;-76
2023/03/04 12:27:11;;;;;;;;;15.25;12.00;;;;;;;;5034754;28;45408;-75
2023/03/04 12:29:43;;;;;;;;;14.00;10.00;;;;;;;;5036215;28;45492;-76
2023/03/04 12:32:08;;;;;;;;;12.00;12.00;;;;;;;;5036480;28;45376;-75
2023/03/04 12:34:42;;;;;;;;;15.50;15.50;;;;;;;;5035930;28;45428;-75
2023/03/04 12:37:15;;;;;;;;;14.50;14.50;;;;;;;;5035952;28;47066;-75
2023/03/04 12:39:59;;;;;;;;;12.50;12.50;;;;;;;;5035529;28;45400;-76
2023/03/04 12:42:24;;;;;;;;;13.00;11.00;;;;;;;;5035360;28;45312;-75
2023/03/04 12:45:00;;;;;;;;;14.25;11.75;;;;;;;;5035946;28;45308;-75
2023/03/04 12:47:25;;;;;;;;;13.25;9.00;;;;;;;;5036010;28;45440;-76
2023/03/04 12:49:50;;;;;;;;;21.00;12.25;;;;;;;;5035053;28;45384;-75
2023/03/04 12:52:25;;;;;;;;;11.75;10.75;;;;;;;;5035175;28;45616;-75
2023/03/04 12:54:59;;;;;;;;;9.00;8.00;;;;;;;;5053023;28;45312;-75
2023/03/04 12:57:26;;;;;;;;;23.00;20.50;;;;;;;;5078056;28;46387;-75
2023/03/04 13:00:04;;;;;;;;;11.50;9.00;;;;;;;;5078075;28;45416;-75
2023/03/04 13:02:48;;;;;;;;;13.25;10.25;;;;;;;;5077876;27;45463;-76
2023/03/04 13:05:23;;;;;;;;;10.00;8.25;;;;;;;;5078930;27;45611;-76
2023/03/04 13:07:50;;;;;;;;;10.00;9.00;;;;;;;;5078484;28;45740;-76
2023/03/04 13:10:17;;;;;;;;;60.25;50.50;;;;;;;;5078410;28;45322;-75
2023/03/04 13:12:47;;;;;;;;;8.75;8.50;;;;;;;;5085094;27;45484;-76
2023/03/04 13:15:12;;;;;;;;;13.50;10.75;;;;;;;;5098380;27;45335;-74
2023/03/04 13:17:37;;;;;;;;;11.75;9.75;;;;;;;;5098196;27;46237;-75
2023/03/04 13:20:18;;;;;;;;;15.50;9.50;;;;;;;;5098436;27;45289;-74
2023/03/04 13:22:45;;;;;;;;;13.75;10.00;;;;;;;;5098416;27;45326;-75
2023/03/04 13:25:29;;;;;;;;;10.50;10.50;;;;;;;;5098201;27;45164;-76
2023/03/04 13:28:10;;;;;;;;;22.00;17.50;;;;;;;;5098038;27;45403;-75
2023/03/04 13:30:36;;;;;;;;;15.00;12.25;;;;;;;;5096975;27;45603;-76
2023/03/04 13:33:07;;;;;;;;;9.50;8.00;;;;;;;;5097473;27;45484;-75
2023/03/04 13:35:47;;;;;;;;;15.75;12.75;;;;;;;;5097749;27;45214;-74
2023/03/04 13:38:21;;;;;;;;;10.75;9.50;;;;;;;;5098086;27;45356;-74
2023/03/04 13:40:59;;;;;;;;;9.50;9.50;;;;;;;;5097778;27;45388;-74
2023/03/04 13:43:41;;;;;;;;;10.25;10.00;;;;;;;;5096795;27;45269;-74
2023/03/04 13:46:18;;;;;;;;;12.00;10.25;;;;;;;;5096484;27;45520;-74
2023/03/04 13:48:43;;;;;;;;;14.50;11.50;;;;;;;;5097657;27;45430;-74
2023/03/04 13:51:16;;;;;;;;;19.75;15.75;;;;;;;;5097460;27;45575;-74
2023/03/04 13:53:57;;;;;;;;;16.00;14.00;;;;;;;;5096071;27;45394;-74
2023/03/04 13:56:30;;;;;;;;;19.50;17.00;;;;;;;;5097264;27;45417;-74
2023/03/04 13:59:01;;;;;;;;;18.00;12.25;;;;;;;;5096799;27;46057;-74
2023/03/04 14:01:29;;;;;;;;;26.00;23.50;;;;;;;;5096836;27;45299;-74
2023/03/04 14:03:54;;;;;;;;;28.00;23.50;;;;;;;;5097177;27;45706;-74
2023/03/04 14:06:21;;;;;;;;;12.50;9.00;;;;;;;;5097048;27;45397;-74
2023/03/04 14:08:47;;;;;;;;;18.50;17.00;;;;;;;;5096887;27;45316;-74
2023/03/04 14:11:14;;;;;;;;;21.00;19.75;;;;;;;;5095470;27;45886;-74
2023/03/04 14:13:39;;;;;;;;;14.25;13.00;;;;;;;;5095357;27;45365;-74
2023/03/04 14:16:05;;;;;;;;;21.50;20.00;;;;;;;;5096835;27;45380;-74
2023/03/04 14:18:30;;;;;;;;;15.50;14.25;;;;;;;;5096385;27;47158;-74
2023/03/04 14:20:57;;;;;;;;;7.25;5.00;;;;;;;;5097010;27;45363;-73